This is the latest recevied weather packets stored in our database for station/object YN1ZGS-13. If no packets are shown the sender has not sent any weather packets the latest 10 day(s).
| Time | Temp. | Humidity | Pressure | Rain* | Wind** | Luminosity | Snow |
|---|---|---|---|---|---|---|---|
| 1778447196 | 35.56° C | 30% | 1007 hPa | 0 mm | - | - | - |
| 1778446596 | 35.56° C | 30% | 1007 hPa | 0 mm | - | - | - |
| 1778445995 | 35.56° C | 30% | 1007 hPa | 0 mm | - | - | - |
| 1778445395 | 35.56° C | 30% | 1007 hPa | 0 mm | - | - | - |
| 1778444795 | 35.56° C | 30% | 1008 hPa | 0 mm | - | - | - |
| 1778444194 | 35.56° C | 30% | 1008 hPa | 0 mm | - | - | - |
| 1778443593 | 35.56° C | 30% | 1008 hPa | 0 mm | - | - | - |
| 1778442993 | 36.11° C | 30% | 1008 hPa | 0 mm | - | - | - |
| 1778442393 | 36.67° C | 30% | 1008 hPa | 0 mm | - | - | - |
| 1778441792 | 33.33° C | 35% | 1008 hPa | 0 mm | - | - | - |
| 1778441192 | 33.89° C | 35% | 1009 hPa | 0 mm | - | - | - |
| 1778440592 | 34.44° C | 35% | 1009 hPa | 0 mm | - | - | - |
| 1778439992 | 34.44° C | 35% | 1009 hPa | 0 mm | - | - | - |
| 1778439391 | 34.44° C | 35% | 1009 hPa | 0 mm | - | - | - |
| 1778438791 | 34.44° C | 35% | 1009 hPa | 0 mm | - | - | - |
| 1778438191 | 35° C | 35% | 1009 hPa | 0 mm | - | - | - |
| 1778437590 | 33.33° C | 37% | 1010 hPa | 0 mm | - | - | - |
| 1778436990 | 33.33° C | 38% | 1010 hPa | 0 mm | - | - | - |
| 1778436390 | 33.89° C | 38% | 1010 hPa | 0 mm | - | - | - |
| 1778435789 | 33.89° C | 38% | 1010 hPa | 0 mm | - | - | - |
| 1778435189 | 34.44° C | 38% | 1010 hPa | 0 mm | - | - | - |
| 1778434588 | 32.22° C | 42% | 1010 hPa | 0 mm | - | - | - |
| 1778433988 | 32.22° C | 45% | 1011 hPa | 0 mm | - | - | - |
| 1778433388 | 31.11° C | 46% | 1011 hPa | 0 mm | - | - | - |
| 1778432787 | 31.67° C | 46% | 1011 hPa | 0 mm | - | - | - |
* Rain latest hour (hover to see other rain measurements)
** Current wind speed in m/s (hover to see current wind gust speed)